sensor_id;sensor_type;location;lat;lon;timestamp;P1;durP1;ratioP1;P2;durP2;ratioP2
68010;SDS011;54794;48.348;7.878;2023-05-14T07:03:38;1.50;;;1.05;;
68010;SDS011;54794;48.348;7.878;2023-05-14T07:06:30;1.65;;;1.35;;
68010;SDS011;54794;48.348;7.878;2023-05-14T07:09:23;1.38;;;1.23;;
68010;SDS011;54794;48.348;7.878;2023-05-14T07:12:11;1.50;;;1.40;;
68010;SDS011;54794;48.348;7.878;2023-05-14T07:15:11;1.67;;;1.25;;
68010;SDS011;54794;48.348;7.878;2023-05-14T07:17:58;2.95;;;1.95;;
68010;SDS011;54794;48.348;7.878;2023-05-14T07:21:11;2.00;;;1.58;;
68010;SDS011;54794;48.348;7.878;2023-05-14T07:24:03;1.85;;;1.55;;
68010;SDS011;54794;48.348;7.878;2023-05-14T07:27:00;2.10;;;1.60;;
68010;SDS011;54794;48.348;7.878;2023-05-14T07:29:54;2.40;;;1.65;;
68010;SDS011;54794;48.348;7.878;2023-05-14T07:33:24;2.90;;;1.98;;
68010;SDS011;54794;48.348;7.878;2023-05-14T07:36:56;2.05;;;1.65;;
68010;SDS011;54794;48.348;7.878;2023-05-14T07:39:40;1.95;;;1.63;;
68010;SDS011;54794;48.348;7.878;2023-05-14T07:42:50;2.20;;;1.70;;
68010;SDS011;54794;48.348;7.878;2023-05-14T07:45:30;3.80;;;1.90;;
68010;SDS011;54794;48.348;7.878;2023-05-14T07:48:55;2.60;;;2.00;;
68010;SDS011;54794;48.348;7.878;2023-05-14T07:51:49;1.88;;;1.55;;
68010;SDS011;54794;48.348;7.878;2023-05-14T07:55:11;2.10;;;1.83;;
68010;SDS011;54794;48.348;7.878;2023-05-14T07:58:25;2.03;;;1.55;;
68010;SDS011;54794;48.348;7.878;2023-05-14T08:01:24;1.92;;;1.63;;
68010;SDS011;54794;48.348;7.878;2023-05-14T08:04:44;1.90;;;1.60;;
68010;SDS011;54794;48.348;7.878;2023-05-14T08:08:08;2.70;;;1.70;;
68010;SDS011;54794;48.348;7.878;2023-05-14T08:11:23;2.15;;;1.95;;
68010;SDS011;54794;48.348;7.878;2023-05-14T08:14:13;2.00;;;1.75;;
68010;SDS011;54794;48.348;7.878;2023-05-14T08:17:00;1.90;;;1.70;;
68010;SDS011;54794;48.348;7.878;2023-05-14T08:19:54;3.08;;;1.70;;
68010;SDS011;54794;48.348;7.878;2023-05-14T08:22:29;2.08;;;1.60;;
68010;SDS011;54794;48.348;7.878;2023-05-14T08:25:02;1.73;;;1.40;;
68010;SDS011;54794;48.348;7.878;2023-05-14T08:27:44;2.13;;;1.60;;
68010;SDS011;54794;48.348;7.878;2023-05-14T08:30:34;2.10;;;1.52;;
68010;SDS011;54794;48.348;7.878;2023-05-14T08:33:18;2.03;;;1.67;;
68010;SDS011;54794;48.348;7.878;2023-05-14T08:36:08;1.73;;;1.45;;
68010;SDS011;54794;48.348;7.878;2023-05-14T08:41:39;4.72;;;1.90;;
68010;SDS011;54794;48.348;7.878;2023-05-14T08:45:04;1.42;;;1.20;;
68010;SDS011;54794;48.348;7.878;2023-05-14T08:48:24;1.48;;;1.23;;
68010;SDS011;54794;48.348;7.878;2023-05-14T08:55:04;1.77;;;1.50;;
68010;SDS011;54794;48.348;7.878;2023-05-14T09:02:01;1.42;;;1.30;;
68010;SDS011;54794;48.348;7.878;2023-05-14T09:12:36;1.95;;;1.40;;
68010;SDS011;54794;48.348;7.878;2023-05-14T09:15:44;2.08;;;1.55;;
68010;SDS011;54794;48.348;7.878;2023-05-14T09:22:22;1.33;;;1.15;;
68010;SDS011;54794;48.348;7.878;2023-05-14T09:25:43;2.20;;;1.45;;
68010;SDS011;54794;48.348;7.878;2023-05-14T09:29:09;1.73;;;1.48;;
68010;SDS011;54794;48.348;7.878;2023-05-14T09:35:19;1.85;;;1.20;;
68010;SDS011;54794;48.348;7.878;2023-05-14T09:38:20;1.92;;;1.15;;
68010;SDS011;54794;48.348;7.878;2023-05-14T09:44:25;1.35;;;1.15;;
68010;SDS011;54794;48.348;7.878;2023-05-14T09:47:39;1.35;;;1.00;;
68010;SDS011;54794;48.348;7.878;2023-05-14T09:54:45;1.77;;;0.90;;
68010;SDS011;54794;48.348;7.878;2023-05-14T09:57:29;1.55;;;1.13;;
68010;SDS011;54794;48.348;7.878;2023-05-14T10:00:15;1.48;;;1.10;;
68010;SDS011;54794;48.348;7.878;2023-05-14T10:03:12;1.20;;;1.00;;
68010;SDS011;54794;48.348;7.878;2023-05-14T10:06:32;1.23;;;0.90;;
68010;SDS011;54794;48.348;7.878;2023-05-14T10:09:46;1.50;;;1.00;;
68010;SDS011;54794;48.348;7.878;2023-05-14T10:13:01;1.23;;;1.10;;
68010;SDS011;54794;48.348;7.878;2023-05-14T10:20:03;1.50;;;1.13;;
68010;SDS011;54794;48.348;7.878;2023-05-14T10:22:56;3.78;;;1.23;;
68010;SDS011;54794;48.348;7.878;2023-05-14T10:33:06;2.47;;;1.10;;
68010;SDS011;54794;48.348;7.878;2023-05-14T10:36:47;0.82;;;0.70;;
68010;SDS011;54794;48.348;7.878;2023-05-14T10:42:57;0.88;;;0.68;;
68010;SDS011;54794;48.348;7.878;2023-05-14T10:45:31;1.77;;;1.00;;
68010;SDS011;54794;48.348;7.878;2023-05-14T10:48:44;1.23;;;0.80;;
68010;SDS011;54794;48.348;7.878;2023-05-14T10:51:37;8.27;;;1.00;;
68010;SDS011;54794;48.348;7.878;2023-05-14T10:54:52;1.13;;;0.90;;
68010;SDS011;54794;48.348;7.878;2023-05-14T10:58:07;1.20;;;0.95;;
68010;SDS011;54794;48.348;7.878;2023-05-14T11:01:43;1.17;;;0.93;;
68010;SDS011;54794;48.348;7.878;2023-05-14T11:05:44;0.88;;;0.77;;
68010;SDS011;54794;48.348;7.878;2023-05-14T11:08:53;0.82;;;0.75;;
68010;SDS011;54794;48.348;7.878;2023-05-14T11:12:14;1.02;;;0.93;;
68010;SDS011;54794;48.348;7.878;2023-05-14T11:15:53;1.00;;;0.88;;
68010;SDS011;54794;48.348;7.878;2023-05-14T11:19:19;0.88;;;0.75;;
68010;SDS011;54794;48.348;7.878;2023-05-14T11:22:47;0.85;;;0.73;;
68010;SDS011;54794;48.348;7.878;2023-05-14T11:25:55;0.93;;;0.77;;
68010;SDS011;54794;48.348;7.878;2023-05-14T11:28:51;0.85;;;0.70;;
68010;SDS011;54794;48.348;7.878;2023-05-14T11:31:54;0.80;;;0.80;;
68010;SDS011;54794;48.348;7.878;2023-05-14T11:34:49;0.90;;;0.73;;
68010;SDS011;54794;48.348;7.878;2023-05-14T11:37:53;2.33;;;0.70;;
68010;SDS011;54794;48.348;7.878;2023-05-14T11:41:02;1.25;;;0.90;;
68010;SDS011;54794;48.348;7.878;2023-05-14T11:50:29;0.95;;;0.60;;
68010;SDS011;54794;48.348;7.878;2023-05-14T11:53:44;0.90;;;0.80;;
68010;SDS011;54794;48.348;7.878;2023-05-14T11:57:29;1.08;;;0.70;;
68010;SDS011;54794;48.348;7.878;2023-05-14T12:00:54;0.95;;;0.80;;
68010;SDS011;54794;48.348;7.878;2023-05-14T12:03:56;0.65;;;0.57;;
68010;SDS011;54794;48.348;7.878;2023-05-14T12:10:28;0.80;;;0.55;;
68010;SDS011;54794;48.348;7.878;2023-05-14T12:13:28;1.25;;;0.73;;
68010;SDS011;54794;48.348;7.878;2023-05-14T12:16:54;0.85;;;0.68;;
68010;SDS011;54794;48.348;7.878;2023-05-14T12:23:12;0.75;;;0.65;;
68010;SDS011;54794;48.348;7.878;2023-05-14T12:30:24;0.70;;;0.50;;
68010;SDS011;54794;48.348;7.878;2023-05-14T12:33:23;0.90;;;0.65;;
68010;SDS011;54794;48.348;7.878;2023-05-14T12:37:12;0.45;;;0.43;;
68010;SDS011;54794;48.348;7.878;2023-05-14T12:40:37;0.88;;;0.60;;
68010;SDS011;54794;48.348;7.878;2023-05-14T12:43:47;1.02;;;0.68;;
68010;SDS011;54794;48.348;7.878;2023-05-14T12:49:55;1.10;;;0.65;;
68010;SDS011;54794;48.348;7.878;2023-05-14T12:53:17;0.63;;;0.50;;
68010;SDS011;54794;48.348;7.878;2023-05-14T12:56:37;0.68;;;0.50;;
68010;SDS011;54794;48.348;7.878;2023-05-14T12:59:24;0.60;;;0.45;;
68010;SDS011;54794;48.348;7.878;2023-05-14T13:02:17;2.78;;;0.60;;
68010;SDS011;54794;48.348;7.878;2023-05-14T13:05:19;1.10;;;0.77;;
68010;SDS011;54794;48.348;7.878;2023-05-14T13:08:11;0.50;;;0.50;;
68010;SDS011;54794;48.348;7.878;2023-05-14T13:11:41;0.68;;;0.60;;
68010;SDS011;54794;48.348;7.878;2023-05-14T13:14:40;1.42;;;0.50;;
68010;SDS011;54794;48.348;7.878;2023-05-14T13:17:54;0.77;;;0.73;;
68010;SDS011;54794;48.348;7.878;2023-05-14T13:28:08;0.60;;;0.50;;
68010;SDS011;54794;48.348;7.878;2023-05-14T13:34:47;0.50;;;0.40;;
68010;SDS011;54794;48.348;7.878;2023-05-14T13:37:46;0.50;;;0.40;;
68010;SDS011;54794;48.348;7.878;2023-05-14T13:40:36;0.40;;;0.40;;
68010;SDS011;54794;48.348;7.878;2023-05-14T13:43:31;0.65;;;0.47;;
68010;SDS011;54794;48.348;7.878;2023-05-14T13:47:21;0.68;;;0.40;;
68010;SDS011;54794;48.348;7.878;2023-05-14T13:50:35;0.55;;;0.47;;
68010;SDS011;54794;48.348;7.878;2023-05-14T13:54:00;0.73;;;0.50;;
68010;SDS011;54794;48.348;7.878;2023-05-14T14:03:01;0.55;;;0.50;;
68010;SDS011;54794;48.348;7.878;2023-05-14T14:05:34;0.60;;;0.40;;
68010;SDS011;54794;48.348;7.878;2023-05-14T14:08:49;0.40;;;0.35;;
68010;SDS011;54794;48.348;7.878;2023-05-14T14:12:02;0.80;;;0.50;;
68010;SDS011;54794;48.348;7.878;2023-05-14T14:15:21;1.27;;;0.63;;
68010;SDS011;54794;48.348;7.878;2023-05-14T14:18:14;0.57;;;0.47;;
68010;SDS011;54794;48.348;7.878;2023-05-14T14:21:19;0.57;;;0.50;;
68010;SDS011;54794;48.348;7.878;2023-05-14T14:27:33;0.50;;;0.50;;
68010;SDS011;54794;48.348;7.878;2023-05-14T14:31:06;0.63;;;0.50;;
68010;SDS011;54794;48.348;7.878;2023-05-14T14:38:28;0.75;;;0.60;;
68010;SDS011;54794;48.348;7.878;2023-05-14T14:41:37;0.63;;;0.52;;
68010;SDS011;54794;48.348;7.878;2023-05-14T14:44:37;0.55;;;0.47;;
68010;SDS011;54794;48.348;7.878;2023-05-14T14:51:56;0.60;;;0.40;;
68010;SDS011;54794;48.348;7.878;2023-05-14T14:59:03;0.40;;;0.38;;
68010;SDS011;54794;48.348;7.878;2023-05-14T15:02:29;0.47;;;0.40;;
68010;SDS011;54794;48.348;7.878;2023-05-14T15:09:09;0.57;;;0.47;;
68010;SDS011;54794;48.348;7.878;2023-05-14T15:12:01;0.57;;;0.47;;
68010;SDS011;54794;48.348;7.878;2023-05-14T15:15:07;0.65;;;0.45;;
68010;SDS011;54794;48.348;7.878;2023-05-14T15:18:47;0.80;;;0.68;;
68010;SDS011;54794;48.348;7.878;2023-05-14T15:21:26;0.77;;;0.57;;
68010;SDS011;54794;48.348;7.878;2023-05-14T15:28:16;0.77;;;0.57;;
68010;SDS011;54794;48.348;7.878;2023-05-14T15:30:54;0.63;;;0.50;;
68010;SDS011;54794;48.348;7.878;2023-05-14T15:33:34;0.80;;;0.60;;
68010;SDS011;54794;48.348;7.878;2023-05-14T15:39:48;0.90;;;0.60;;
68010;SDS011;54794;48.348;7.878;2023-05-14T15:43:31;0.93;;;0.80;;
68010;SDS011;54794;48.348;7.878;2023-05-14T15:50:23;0.93;;;0.55;;
68010;SDS011;54794;48.348;7.878;2023-05-14T15:53:06;0.75;;;0.60;;
68010;SDS011;54794;48.348;7.878;2023-05-14T15:56:29;0.60;;;0.50;;
68010;SDS011;54794;48.348;7.878;2023-05-14T15:59:29;0.75;;;0.50;;
68010;SDS011;54794;48.348;7.878;2023-05-14T16:05:32;0.88;;;0.75;;
68010;SDS011;54794;48.348;7.878;2023-05-14T16:19:00;0.77;;;0.70;;
68010;SDS011;54794;48.348;7.878;2023-05-14T16:22:13;0.80;;;0.60;;
68010;SDS011;54794;48.348;7.878;2023-05-14T16:28:47;0.70;;;0.45;;
68010;SDS011;54794;48.348;7.878;2023-05-14T16:31:28;0.43;;;0.40;;
68010;SDS011;54794;48.348;7.878;2023-05-14T16:34:27;0.90;;;0.60;;
68010;SDS011;54794;48.348;7.878;2023-05-14T16:37:41;0.60;;;0.50;;
68010;SDS011;54794;48.348;7.878;2023-05-14T16:40:54;2.13;;;0.50;;
68010;SDS011;54794;48.348;7.878;2023-05-14T16:44:18;1.52;;;0.43;;
68010;SDS011;54794;48.348;7.878;2023-05-14T16:50:16;0.70;;;0.50;;
68010;SDS011;54794;48.348;7.878;2023-05-14T16:53:13;0.40;;;0.40;;
68010;SDS011;54794;48.348;7.878;2023-05-14T16:56:17;0.68;;;0.52;;
68010;SDS011;54794;48.348;7.878;2023-05-14T16:59:28;0.80;;;0.50;;
68010;SDS011;54794;48.348;7.878;2023-05-14T17:02:21;0.68;;;0.47;;
68010;SDS011;54794;48.348;7.878;2023-05-14T17:05:02;0.50;;;0.47;;
68010;SDS011;54794;48.348;7.878;2023-05-14T17:07:45;0.80;;;0.60;;
68010;SDS011;54794;48.348;7.878;2023-05-14T17:10:35;0.82;;;0.70;;
68010;SDS011;54794;48.348;7.878;2023-05-14T17:13:19;0.50;;;0.38;;
68010;SDS011;54794;48.348;7.878;2023-05-14T17:16:06;0.40;;;0.32;;
68010;SDS011;54794;48.348;7.878;2023-05-14T17:18:48;0.60;;;0.40;;
68010;SDS011;54794;48.348;7.878;2023-05-14T17:22:12;0.55;;;0.40;;
68010;SDS011;54794;48.348;7.878;2023-05-14T17:25:11;0.68;;;0.40;;
68010;SDS011;54794;48.348;7.878;2023-05-14T17:28:24;1.45;;;0.50;;
68010;SDS011;54794;48.348;7.878;2023-05-14T17:31:44;0.50;;;0.40;;
68010;SDS011;54794;48.348;7.878;2023-05-14T17:37:58;1.38;;;0.60;;
68010;SDS011;54794;48.348;7.878;2023-05-14T17:41:03;1.25;;;0.47;;
68010;SDS011;54794;48.348;7.878;2023-05-14T17:44:09;0.45;;;0.40;;
68010;SDS011;54794;48.348;7.878;2023-05-14T17:46:45;2.00;;;0.50;;
68010;SDS011;54794;48.348;7.878;2023-05-14T17:49:48;0.70;;;0.52;;
68010;SDS011;54794;48.348;7.878;2023-05-14T17:52:24;0.50;;;0.40;;
68010;SDS011;54794;48.348;7.878;2023-05-14T17:55:21;0.68;;;0.50;;
68010;SDS011;54794;48.348;7.878;2023-05-14T17:58:34;0.45;;;0.30;;
68010;SDS011;54794;48.348;7.878;2023-05-14T18:02:16;0.63;;;0.38;;
68010;SDS011;54794;48.348;7.878;2023-05-14T18:09:58;0.90;;;0.60;;
68010;SDS011;54794;48.348;7.878;2023-05-14T18:13:04;0.52;;;0.40;;
68010;SDS011;54794;48.348;7.878;2023-05-14T18:22:54;0.57;;;0.35;;
68010;SDS011;54794;48.348;7.878;2023-05-14T18:33:00;0.80;;;0.50;;
68010;SDS011;54794;48.348;7.878;2023-05-14T18:36:17;2.10;;;0.52;;
68010;SDS011;54794;48.348;7.878;2023-05-14T18:39:05;0.70;;;0.50;;
68010;SDS011;54794;48.348;7.878;2023-05-14T18:49:09;0.65;;;0.47;;
68010;SDS011;54794;48.348;7.878;2023-05-14T18:52:48;0.60;;;0.50;;
68010;SDS011;54794;48.348;7.878;2023-05-14T18:59:49;0.52;;;0.43;;
68010;SDS011;54794;48.348;7.878;2023-05-14T19:03:01;0.55;;;0.40;;
68010;SDS011;54794;48.348;7.878;2023-05-14T19:05:55;0.90;;;0.60;;
68010;SDS011;54794;48.348;7.878;2023-05-14T19:08:50;1.00;;;0.40;;
68010;SDS011;54794;48.348;7.878;2023-05-14T19:11:47;0.80;;;0.60;;
68010;SDS011;54794;48.348;7.878;2023-05-14T19:15:10;0.55;;;0.40;;
68010;SDS011;54794;48.348;7.878;2023-05-14T19:18:48;0.70;;;0.40;;
68010;SDS011;54794;48.348;7.878;2023-05-14T19:22:54;0.82;;;0.50;;
68010;SDS011;54794;48.348;7.878;2023-05-14T19:29:40;0.88;;;0.57;;
68010;SDS011;54794;48.348;7.878;2023-05-14T19:36:11;0.55;;;0.43;;
68010;SDS011;54794;48.348;7.878;2023-05-14T19:39:35;0.85;;;0.50;;
68010;SDS011;54794;48.348;7.878;2023-05-14T19:49:50;0.52;;;0.38;;
68010;SDS011;54794;48.348;7.878;2023-05-14T19:52:52;0.90;;;0.60;;
68010;SDS011;54794;48.348;7.878;2023-05-14T20:00:42;0.40;;;0.40;;
68010;SDS011;54794;48.348;7.878;2023-05-14T20:04:58;0.38;;;0.30;;
68010;SDS011;54794;48.348;7.878;2023-05-14T20:11:47;1.77;;;0.32;;
68010;SDS011;54794;48.348;7.878;2023-05-14T20:15:11;1.65;;;0.40;;
68010;SDS011;54794;48.348;7.878;2023-05-14T20:22:09;0.70;;;0.60;;
68010;SDS011;54794;48.348;7.878;2023-05-14T20:25:48;0.80;;;0.63;;
